Time;durP1;ratioP1;P1;durP2;ratioP2;P2;SDS_P1;SDS_P2;PMS_P1;PMS_P2;Temp;Humidity;BMP_temperature;BMP_pressure;BME280_temperature;BME280_humidity;BME280_pressure;Samples;Min_cycle;Max_cycle;Signal;HPM_P1;HPM_P2
2023/01/01 00:01:10;;;;;;;2.83;1.00;;;;;;;-145.06;100.00;60892.56;5883826;23;20006;-91
2023/01/01 00:03:53;;;;;;;4.25;1.20;;;;;;;-145.06;100.00;60892.56;5865354;23;20002;-92
2023/01/01 00:06:32;;;;;;;2.38;1.10;;;;;;;-145.06;100.00;60892.56;5867494;23;20010;-92
2023/01/01 00:12:10;;;;;;;3.80;1.00;;;;;;;-145.06;100.00;60892.56;5898435;23;20010;-91
2023/01/01 00:14:49;;;;;;;2.47;1.20;;;;;;;-145.06;100.00;60892.56;5868624;23;20006;-91
2023/01/01 00:17:29;;;;;;;3.30;1.40;;;;;;;-145.06;100.00;60892.56;5867922;23;20014;-91
2023/01/01 00:20:08;;;;;;;2.42;1.27;;;;;;;-145.06;100.00;60892.56;5870793;23;20002;-91
2023/01/01 00:22:47;;;;;;;2.17;1.10;;;;;;;-145.06;100.00;60892.56;5888969;23;20030;-90
2023/01/01 00:25:27;;;;;;;2.53;1.20;;;;;;;-145.06;100.00;60892.56;5868695;23;20489;-90
2023/01/01 00:28:06;;;;;;;4.53;1.92;;;;;;;-145.06;100.00;60892.56;5888154;23;20326;-91
2023/01/01 00:30:45;;;;;;;;;;;;;;;-145.06;100.00;60892.56;5867897;23;20394;-91
2023/01/01 00:33:24;;;;;;;5.37;2.73;;;;;;;-145.06;100.00;60892.56;5867483;23;20065;-90
2023/01/01 00:36:14;;;;;;;4.80;2.35;;;;;;;-145.06;100.00;60892.56;5889112;23;20242;-91
2023/01/01 00:38:54;;;;;;;4.07;1.90;;;;;;;-145.06;100.00;60892.56;5868264;23;20007;-90
2023/01/01 00:41:34;;;;;;;3.25;1.50;;;;;;;-145.06;100.00;60892.56;5868055;23;20010;-91
2023/01/01 00:44:12;;;;;;;3.30;1.42;;;;;;;-145.06;100.00;60892.56;5869227;23;20066;-91
2023/01/01 00:46:52;;;;;;;2.47;1.42;;;;;;;-145.06;100.00;60892.56;5868348;23;20277;-91
2023/01/01 00:49:32;;;;;;;3.28;1.90;;;;;;;-145.06;100.00;60892.56;5887881;23;20382;-91
2023/01/01 00:52:10;;;;;;;2.75;1.70;;;;;;;-145.06;100.00;60892.56;5887339;23;20010;-90
2023/01/01 00:54:49;;;;;;;4.23;1.53;;;;;;;-145.06;100.00;60892.56;5888572;23;20002;-92
2023/01/01 00:57:28;;;;;;;3.97;1.90;;;;;;;-145.06;100.00;60892.56;5866953;23;20243;-90
2023/01/01 01:00:08;;;;;;;5.13;2.40;;;;;;;-145.06;100.00;60892.56;5887549;23;20405;-92
2023/01/01 01:02:47;;;;;;;3.35;1.85;;;;;;;-145.06;100.00;60892.56;5888115;23;20390;-93
2023/01/01 01:05:26;;;;;;;2.67;1.70;;;;;;;-145.06;100.00;60892.56;5887132;23;20011;-91
2023/01/01 01:08:05;;;;;;;3.33;2.00;;;;;;;-145.06;100.00;60892.56;5866848;23;20010;-90
2023/01/01 01:10:44;;;;;;;3.60;1.92;;;;;;;-145.06;100.00;60892.56;5866698;23;20239;-91
2023/01/01 01:13:23;;;;;;;4.28;1.77;;;;;;;-145.06;100.00;60892.56;5868023;23;20003;-91
2023/01/01 01:16:09;;;;;;;3.40;1.73;;;;;;;-145.06;100.00;60892.56;5865988;23;20062;-91
2023/01/01 01:18:50;;;;;;;3.05;1.60;;;;;;;-145.06;100.00;60892.56;5867024;23;20006;-91
2023/01/01 01:21:31;;;;;;;10.70;4.18;;;;;;;-145.06;100.00;60892.56;5886756;23;20445;-91
2023/01/01 01:24:10;;;;;;;11.30;4.53;;;;;;;-145.06;100.00;60892.56;5887212;23;20010;-91
2023/01/01 01:26:49;;;;;;;6.30;3.20;;;;;;;-145.06;100.00;60892.56;5866399;23;20051;-91
2023/01/01 01:29:32;;;;;;;3.40;1.73;;;;;;;-145.06;100.00;60892.56;5895516;23;20030;-91
2023/01/01 01:32:11;;;;;;;3.15;2.03;;;;;;;-145.06;100.00;60892.56;5866192;23;20011;-91
2023/01/01 01:34:51;;;;;;;4.63;1.92;;;;;;;-145.06;100.00;60892.56;5884803;23;20307;-91
2023/01/01 01:37:30;;;;;;;3.72;2.17;;;;;;;-145.06;100.00;60892.56;5890240;23;20014;-90
2023/01/01 01:40:11;;;;;;;5.63;2.50;;;;;;;-145.06;100.00;60892.56;5865697;23;20010;-91
2023/01/01 01:42:50;;;;;;;4.25;2.45;;;;;;;-145.06;100.00;60892.56;5886395;23;20026;-90
2023/01/01 01:45:30;;;;;;;3.75;2.22;;;;;;;-145.06;100.00;60892.56;5865195;23;20010;-92
2023/01/01 01:48:10;;;;;;;6.05;2.95;;;;;;;-145.06;100.00;60892.56;5866330;23;20025;-90
2023/01/01 01:50:51;;;;;;;3.53;1.75;;;;;;;-145.06;100.00;60892.56;5886823;23;20058;-91
2023/01/01 01:53:34;;;;;;;2.13;1.13;;;;;;;-145.06;100.00;60892.56;5866890;23;20007;-90
2023/01/01 01:56:20;;;;;;;1.92;1.40;;;;;;;-145.06;100.00;60892.56;5866117;23;20050;-91
2023/01/01 01:58:59;;;;;;;5.25;1.90;;;;;;;-145.06;100.00;60892.56;5867198;23;20034;-90
2023/01/01 02:01:38;;;;;;;2.88;1.48;;;;;;;-145.06;100.00;60892.56;5866534;23;20010;-90
2023/01/01 02:04:17;;;;;;;2.35;1.20;;;;;;;-145.06;100.00;60892.56;5865980;23;20323;-91
2023/01/01 02:06:57;;;;;;;2.85;1.20;;;;;;;-145.06;100.00;60892.56;5885389;23;20081;-91
2023/01/01 02:09:36;;;;;;;3.75;1.80;;;;;;;-145.06;100.00;60892.56;5865373;23;20019;-91
2023/01/01 02:12:15;;;;;;;4.13;2.10;;;;;;;-145.06;100.00;60892.56;5867234;23;20010;-92
2023/01/01 02:14:54;;;;;;;2.50;1.67;;;;;;;-145.06;100.00;60892.56;5866336;23;20061;-90
2023/01/01 02:17:43;;;;;;;2.90;1.50;;;;;;;-145.06;100.00;60892.56;5885094;23;20034;-90
2023/01/01 02:20:25;;;;;;;2.75;1.63;;;;;;;-145.06;100.00;60892.56;5897102;23;20010;-91
2023/01/01 02:23:25;;;;;;;3.00;1.73;;;;;;;-145.06;100.00;60892.56;5865773;23;20042;-91
2023/01/01 02:26:05;;;;;;;3.10;1.33;;;;;;;-145.06;100.00;60892.56;5866829;23;20025;-90
2023/01/01 02:28:54;;;;;;;3.08;1.15;;;;;;;-145.06;100.00;60892.56;5866244;23;20011;-92
2023/01/01 02:31:45;;;;;;;2.78;1.00;;;;;;;-145.06;100.00;60892.56;5886011;23;20002;-91
2023/01/01 02:34:27;;;;;;;;;;;;;;;-145.06;100.00;60892.56;5867809;23;20006;-90
2023/01/01 02:37:11;;;;;;;2.28;0.90;;;;;;;-145.06;100.00;60892.56;5864995;23;19909;-90
2023/01/01 02:39:55;;;;;;;1.77;1.10;;;;;;;-145.06;100.00;60892.56;5866713;23;20010;-90
2023/01/01 02:42:35;;;;;;;1.20;0.70;;;;;;;-145.06;100.00;60892.56;5867243;23;20011;-91
2023/01/01 02:45:14;;;;;;;2.45;0.80;;;;;;;-145.06;100.00;60892.56;5865654;23;20006;-92
2023/01/01 02:47:52;;;;;;;1.17;0.63;;;;;;;-145.06;100.00;60892.56;5866809;23;20434;-90
2023/01/01 02:50:33;;;;;;;1.13;0.50;;;;;;;-145.06;100.00;60892.56;5866321;23;20042;-91
2023/01/01 02:53:30;;;;;;;2.17;0.70;;;;;;;-145.06;100.00;60892.56;5867091;23;20006;-92
2023/01/01 02:56:32;;;;;;;1.63;0.50;;;;;;;-145.06;100.00;60892.56;5866654;23;20006;-92
2023/01/01 03:02:29;;;;;;;1.88;0.60;;;;;;;-145.06;100.00;60892.56;5899138;23;20010;-92
2023/01/01 03:05:14;;;;;;;0.95;0.50;;;;;;;-145.06;100.00;60892.56;5868471;23;20014;-92
2023/01/01 03:07:56;;;;;;;0.60;0.50;;;;;;;-145.06;100.00;60892.56;5868260;23;20014;-93
2023/01/01 03:10:54;;;;;;;2.47;0.82;;;;;;;-145.06;100.00;60892.56;5867163;23;20018;-91
2023/01/01 03:13:52;;;;;;;1.45;0.70;;;;;;;-145.06;100.00;60892.56;5888706;23;20002;-91
2023/01/01 03:16:37;;;;;;;1.00;0.50;;;;;;;-145.06;100.00;60892.56;5866533;23;20536;-90
2023/01/01 03:19:22;;;;;;;2.65;0.60;;;;;;;-145.06;100.00;60892.56;5867271;23;20010;-91
2023/01/01 03:22:03;;;;;;;0.75;0.50;;;;;;;-145.06;100.00;60892.56;5868932;23;20093;-91
2023/01/01 03:25:05;;;;;;;1.08;0.50;;;;;;;-145.06;100.00;60892.56;5867608;23;20038;-90
2023/01/01 03:27:51;;;;;;;0.88;0.55;;;;;;;-145.06;100.00;60892.56;5868183;23;20010;-91
2023/01/01 03:30:34;;;;;;;1.05;0.60;;;;;;;-145.06;100.00;60892.56;5867924;23;20006;-91
2023/01/01 03:33:22;;;;;;;1.05;0.73;;;;;;;-145.06;100.00;60892.56;5867839;23;20085;-91
2023/01/01 03:36:18;;;;;;;1.52;0.55;;;;;;;-145.06;100.00;60892.56;5867968;23;20006;-91
2023/01/01 03:39:04;;;;;;;1.70;0.50;;;;;;;-145.06;100.00;60892.56;5868913;23;20010;-92
2023/01/01 03:41:58;;;;;;;1.08;0.75;;;;;;;-145.06;100.00;60892.56;5868084;23;20006;-90
2023/01/01 03:44:42;;;;;;;2.25;0.80;;;;;;;-145.06;100.00;60892.56;5868381;23;20010;-91
2023/01/01 03:47:22;;;;;;;1.58;0.60;;;;;;;-145.06;100.00;60892.56;5868673;23;20010;-92
2023/01/01 03:50:02;;;;;;;2.63;0.70;;;;;;;-145.06;100.00;60892.56;5890253;23;20010;-92
2023/01/01 03:53:02;;;;;;;2.95;1.63;;;;;;;-145.06;100.00;60892.56;5870174;23;20006;-91
2023/01/01 03:55:49;;;;;;;1.95;1.00;;;;;;;-145.06;100.00;60892.56;5868220;23;20006;-92
2023/01/01 03:58:35;;;;;;;2.33;1.15;;;;;;;-145.06;100.00;60892.56;5868713;23;20011;-90
2023/01/01 04:01:23;;;;;;;2.15;0.98;;;;;;;-145.06;100.00;60892.56;5867328;23;20010;-92
2023/01/01 04:04:05;;;;;;;2.90;1.00;;;;;;;-145.06;100.00;60892.56;5868081;23;20007;-90
2023/01/01 04:06:45;;;;;;;2.08;1.00;;;;;;;-145.06;100.00;60892.56;5867137;23;20441;-92
2023/01/01 04:09:30;;;;;;;1.90;0.73;;;;;;;-145.06;100.00;60892.56;5887672;23;20073;-91
2023/01/01 04:12:09;;;;;;;1.38;0.70;;;;;;;-145.06;100.00;60892.56;5867610;23;20010;-90
2023/01/01 04:14:49;;;;;;;0.60;0.60;;;;;;;-145.06;100.00;60892.56;5887365;23;20002;-91
2023/01/01 04:17:28;;;;;;;1.73;0.90;;;;;;;-145.06;100.00;60892.56;5867468;23;20010;-92
2023/01/01 04:20:08;;;;;;;1.65;0.80;;;;;;;-145.06;100.00;60892.56;5868531;23;20319;-92
2023/01/01 04:22:47;;;;;;;3.10;0.80;;;;;;;-145.06;100.00;60892.56;5868491;23;20006;-91
2023/01/01 04:25:27;;;;;;;1.60;0.70;;;;;;;-145.06;100.00;60892.56;5868194;23;20018;-91
2023/01/01 04:28:06;;;;;;;2.47;0.70;;;;;;;-145.06;100.00;60892.56;5900011;23;20030;-91
2023/01/01 04:30:45;;;;;;;2.67;0.90;;;;;;;-145.06;100.00;60892.56;5868922;23;20374;-91
2023/01/01 04:33:23;;;;;;;1.80;0.67;;;;;;;-145.06;100.00;60892.56;5869318;23;20238;-91
2023/01/01 04:36:05;;;;;;;1.70;0.73;;;;;;;-145.06;100.00;60892.56;5889005;23;20014;-91
2023/01/01 04:38:44;;;;;;;1.92;0.73;;;;;;;-145.06;100.00;60892.56;5868422;23;20014;-91
2023/01/01 04:41:23;;;;;;;1.48;0.68;;;;;;;-145.06;100.00;60892.56;5888314;23;20010;-90
2023/01/01 04:44:02;;;;;;;1.80;0.57;;;;;;;-145.06;100.00;60892.56;5868290;23;20006;-92
2023/01/01 04:46:41;;;;;;;1.95;0.80;;;;;;;-145.06;100.00;60892.56;5867799;23;20314;-92
2023/01/01 04:49:20;;;;;;;1.52;0.75;;;;;;;-145.06;100.00;60892.56;5888051;23;20010;-91
2023/01/01 04:51:59;;;;;;;1.23;0.70;;;;;;;-145.06;100.00;60892.56;5867857;23;20010;-91
2023/01/01 04:54:38;;;;;;;1.30;0.60;;;;;;;-145.06;100.00;60892.56;5868442;23;20234;-91
2023/01/01 04:57:17;;;;;;;1.00;0.57;;;;;;;-145.06;100.00;60892.56;5887754;23;20010;-90
2023/01/01 04:59:56;;;;;;;1.10;0.70;;;;;;;-145.06;100.00;60892.56;5867310;23;20252;-90
2023/01/01 05:02:35;;;;;;;2.45;0.80;;;;;;;-145.06;100.00;60892.56;5896967;23;20345;-91
2023/01/01 05:05:14;;;;;;;3.13;0.90;;;;;;;-145.06;100.00;60892.56;5866781;23;20034;-91
2023/01/01 05:07:54;;;;;;;2.92;0.57;;;;;;;-145.06;100.00;60892.56;5867400;23;20309;-92
2023/01/01 05:10:32;;;;;;;1.15;0.65;;;;;;;-145.06;100.00;60892.56;5866917;23;20330;-91
2023/01/01 05:13:11;;;;;;;1.35;0.73;;;;;;;-145.06;100.00;60892.56;5866466;23;20010;-91
2023/01/01 05:15:50;;;;;;;1.77;0.70;;;;;;;-145.06;100.00;60892.56;5887466;23;20174;-91
2023/01/01 05:18:30;;;;;;;1.17;0.63;;;;;;;-145.06;100.00;60892.56;5886345;23;20038;-92
2023/01/01 05:21:15;;;;;;;1.83;0.75;;;;;;;-145.06;100.00;60892.56;5885554;23;20070;-90
2023/01/01 05:23:55;;;;;;;1.13;0.40;;;;;;;-145.06;100.00;60892.56;5898228;23;20038;-90
2023/01/01 05:26:37;;;;;;;1.15;0.60;;;;;;;-145.06;100.00;60892.56;5866035;23;20014;-90
2023/01/01 05:29:18;;;;;;;1.33;0.50;;;;;;;-145.06;100.00;60892.56;5867755;23;20010;-91
2023/01/01 05:31:57;;;;;;;5.18;0.80;;;;;;;-145.06;100.00;60892.56;5887083;23;20006;-90
2023/01/01 05:34:36;;;;;;;1.27;0.85;;;;;;;-145.06;100.00;60892.56;5865938;23;20449;-90
2023/01/01 05:37:15;;;;;;;1.17;0.50;;;;;;;-145.06;100.00;60892.56;5887125;23;20633;-90
2023/01/01 05:39:54;;;;;;;1.98;0.70;;;;;;;-145.06;100.00;60892.56;5897150;23;20010;-90
2023/01/01 05:42:33;;;;;;;0.83;0.60;;;;;;;-145.06;100.00;60892.56;5865534;23;20278;-90
2023/01/01 05:45:12;;;;;;;1.17;0.60;;;;;;;-145.06;100.00;60892.56;5865353;23;20014;-90
2023/01/01 05:47:51;;;;;;;1.77;0.53;;;;;;;-145.06;100.00;60892.56;5867320;23;20242;-89
2023/01/01 05:50:30;;;;;;;0.95;0.70;;;;;;;-145.06;100.00;60892.56;5867504;23;20253;-90
2023/01/01 05:53:09;;;;;;;1.20;0.57;;;;;;;-145.06;100.00;60892.56;5886086;23;20010;-91
2023/01/01 05:55:52;;;;;;;1.90;0.90;;;;;;;-145.06;100.00;60892.56;5866763;23;20010;-90
2023/01/01 05:58:33;;;;;;;3.28;0.82;;;;;;;-145.06;100.00;60892.56;5866725;23;20010;-91
2023/01/01 06:01:17;;;;;;;1.15;0.60;;;;;;;-145.06;100.00;60892.56;5866252;23;20038;-89
2023/01/01 06:03:58;;;;;;;3.33;0.68;;;;;;;-145.06;100.00;60892.56;5868131;23;20010;-91
2023/01/01 06:06:37;;;;;;;1.58;0.70;;;;;;;-145.06;100.00;60892.56;5866767;23;20034;-90
2023/01/01 06:09:16;;;;;;;1.10;0.57;;;;;;;-145.06;100.00;60892.56;5867095;23;20085;-93
2023/01/01 06:11:55;;;;;;;1.38;0.70;;;;;;;-145.06;100.00;60892.56;5866254;23;20354;-91
2023/01/01 06:14:34;;;;;;;2.63;0.80;;;;;;;-145.06;100.00;60892.56;5866765;23;20030;-91
2023/01/01 06:17:13;;;;;;;1.70;0.70;;;;;;;-145.06;100.00;60892.56;5867563;23;20010;-91
2023/01/01 06:19:52;;;;;;;1.80;0.70;;;;;;;-145.06;100.00;60892.56;5867288;23;20010;-91
2023/01/01 06:22:35;;;;;;;0.95;0.60;;;;;;;-145.06;100.00;60892.56;5866186;23;20048;-91
2023/01/01 06:25:14;;;;;;;1.65;0.77;;;;;;;-145.06;100.00;60892.56;5866774;23;20010;-91
2023/01/01 06:27:53;;;;;;;1.30;0.93;;;;;;;-145.06;100.00;60892.56;5866871;23;20449;-91
2023/01/01 06:30:33;;;;;;;1.10;0.60;;;;;;;-145.06;100.00;60892.56;5897669;23;20066;-90
2023/01/01 06:33:11;;;;;;;;;;;;;;;-145.06;100.00;60892.56;5866130;23;20010;-90
2023/01/01 06:35:50;;;;;;;1.85;0.77;;;;;;;-145.06;100.00;60892.56;5866011;23;19909;-90
2023/01/01 06:38:31;;;;;;;1.80;0.75;;;;;;;-145.06;100.00;60892.56;5868436;23;20018;-91
2023/01/01 06:41:16;;;;;;;1.88;0.80;;;;;;;-145.06;100.00;60892.56;5868652;23;20074;-90
2023/01/01 06:43:57;;;;;;;1.10;0.60;;;;;;;-145.06;100.00;60892.56;5868323;23;20015;-90
2023/01/01 06:46:36;;;;;;;1.08;0.70;;;;;;;-145.06;100.00;60892.56;5868200;23;20034;-91
2023/01/01 06:49:15;;;;;;;2.20;0.70;;;;;;;-145.06;100.00;60892.56;5888488;23;20011;-91
2023/01/01 06:51:54;;;;;;;1.07;0.63;;;;;;;-145.06;100.00;60892.56;5869134;23;20457;-91
2023/01/01 06:54:33;;;;;;;1.02;0.43;;;;;;;-145.06;100.00;60892.56;5870303;23;20797;-91
2023/01/01 06:57:12;;;;;;;0.82;0.57;;;;;;;-145.06;100.00;60892.56;5887327;23;20014;-90
2023/01/01 06:59:51;;;;;;;3.20;0.60;;;;;;;-145.06;100.00;60892.56;5869740;23;20010;-91
2023/01/01 07:02:30;;;;;;;1.00;0.57;;;;;;;-145.06;100.00;60892.56;5868403;23;20010;-91
2023/01/01 07:05:09;;;;;;;2.27;0.60;;;;;;;-145.06;100.00;60892.56;5866108;23;20026;-90
2023/01/01 07:07:48;;;;;;;1.27;0.57;;;;;;;-145.06;100.00;60892.56;5868235;23;20010;-91
2023/01/01 07:10:27;;;;;;;2.90;0.50;;;;;;;-145.06;100.00;60892.56;5868780;23;20007;-91
2023/01/01 07:13:09;;;;;;;1.40;0.73;;;;;;;-145.06;100.00;60892.56;5870028;23;20014;-91
2023/01/01 07:15:48;;;;;;;1.42;0.77;;;;;;;-145.06;100.00;60892.56;5870608;23;20010;-91
2023/01/01 07:18:27;;;;;;;2.93;0.90;;;;;;;-145.06;100.00;60892.56;5870451;23;20002;-91
2023/01/01 07:21:25;;;;;;;1.70;0.60;;;;;;;-145.06;100.00;60892.56;5870808;23;20242;-91
2023/01/01 07:24:05;;;;;;;1.73;1.05;;;;;;;-145.06;100.00;60892.56;5881885;23;20073;-90
2023/01/01 07:26:45;;;;;;;2.53;0.60;;;;;;;-145.06;100.00;60892.56;5909062;23;20002;-90
2023/01/01 07:29:24;;;;;;;1.85;0.65;;;;;;;-145.06;100.00;60892.56;5873903;23;20010;-91
2023/01/01 07:32:03;;;;;;;2.27;0.80;;;;;;;-145.06;100.00;60892.56;5891978;23;20011;-92
2023/01/01 07:34:42;;;;;;;2.30;0.70;;;;;;;-145.06;100.00;60892.56;5872391;23;20543;-92
2023/01/01 07:37:25;;;;;;;1.23;0.60;;;;;;;-145.06;100.00;60892.56;5871240;23;20018;-90
2023/01/01 07:40:04;;;;;;;2.63;1.00;;;;;;;-145.06;100.00;60892.56;5871445;23;20011;-90
2023/01/01 07:42:43;;;;;;;1.48;0.70;;;;;;;-145.06;100.00;60892.56;5872401;23;20002;-90
2023/01/01 07:45:22;;;;;;;2.73;1.00;;;;;;;-145.06;100.00;60892.56;5871313;23;20323;-92
2023/01/01 07:48:02;;;;;;;1.67;0.60;;;;;;;-145.06;100.00;60892.56;5871853;23;20239;-91
2023/01/01 07:50:42;;;;;;;1.70;0.85;;;;;;;-145.06;100.00;60892.56;5871564;23;20033;-90
2023/01/01 07:53:21;;;;;;;2.22;0.70;;;;;;;-145.06;100.00;60892.56;5872586;23;20006;-90
2023/01/01 07:56:00;;;;;;;2.50;0.90;;;;;;;-145.06;100.00;60892.56;5871986;23;20007;-90
2023/01/01 07:58:40;;;;;;;2.15;0.70;;;;;;;-145.06;100.00;60892.56;5872037;23;20010;-91
2023/01/01 08:01:19;;;;;;;2.75;0.90;;;;;;;-145.06;100.00;60892.56;5870889;23;20453;-91
2023/01/01 08:03:58;;;;;;;3.35;0.80;;;;;;;-145.06;100.00;60892.56;5871255;23;20010;-90
2023/01/01 08:06:37;;;;;;;2.03;0.70;;;;;;;-145.06;100.00;60892.56;5890899;23;20371;-89
2023/01/01 08:09:16;;;;;;;2.17;0.90;;;;;;;-145.06;100.00;60892.56;5872721;23;20018;-90
2023/01/01 08:11:57;;;;;;;1.50;0.85;;;;;;;-145.06;100.00;60892.56;5892542;23;20014;-90
2023/01/01 08:14:36;;;;;;;1.40;0.60;;;;;;;-145.06;100.00;60892.56;5891781;23;20006;-89
2023/01/01 08:17:16;;;;;;;2.30;0.60;;;;;;;-145.06;100.00;60892.56;5892283;23;20497;-90
2023/01/01 08:19:55;;;;;;;2.50;0.80;;;;;;;-145.06;100.00;60892.56;5872180;23;20006;-90
2023/01/01 08:22:34;;;;;;;2.28;0.95;;;;;;;-145.06;100.00;60892.56;5871923;23;20010;-90
2023/01/01 08:25:13;;;;;;;1.50;0.80;;;;;;;-145.06;100.00;60892.56;5870207;23;20437;-90
2023/01/01 08:27:52;;;;;;;1.93;0.60;;;;;;;-145.06;100.00;60892.56;5870032;23;20014;-90
2023/01/01 08:30:31;;;;;;;1.13;0.75;;;;;;;-145.06;100.00;60892.56;5891846;23;20562;-91
2023/01/01 08:33:09;;;;;;;2.55;0.70;;;;;;;-145.06;100.00;60892.56;5871361;23;20011;-89
2023/01/01 08:35:48;;;;;;;2.13;0.70;;;;;;;-145.06;100.00;60892.56;5870825;23;20034;-90
2023/01/01 08:38:27;;;;;;;1.17;0.63;;;;;;;-145.06;100.00;60892.56;5891318;23;20425;-90
2023/01/01 08:41:07;;;;;;;1.23;0.65;;;;;;;-145.06;100.00;60892.56;5871902;23;20239;-92
2023/01/01 08:43:46;;;;;;;1.48;0.80;;;;;;;-145.06;100.00;60892.56;5869649;23;20081;-91
2023/01/01 08:46:25;;;;;;;2.60;0.70;;;;;;;-145.06;100.00;60892.56;5864269;23;20429;-91
2023/01/01 08:49:04;;;;;;;4.38;0.80;;;;;;;-145.06;100.00;60892.56;5862621;23;20006;-91
2023/01/01 08:51:43;;;;;;;2.15;1.08;;;;;;;-145.06;100.00;60892.56;5868859;23;20224;-91
2023/01/01 08:54:22;;;;;;;1.02;0.70;;;;;;;-145.06;100.00;60892.56;5869395;23;20594;-91
2023/01/01 08:57:01;;;;;;;1.87;0.80;;;;;;;-145.06;100.00;60892.56;5885751;23;20037;-90
2023/01/01 08:59:40;;;;;;;1.85;0.70;;;;;;;-145.06;100.00;60892.56;5867094;23;20030;-91
2023/01/01 09:02:19;;;;;;;2.03;0.90;;;;;;;-145.06;100.00;60892.56;5866389;23;20069;-92
2023/01/01 09:04:58;;;;;;;3.30;1.03;;;;;;;-145.06;100.00;60892.56;5868328;23;20190;-91
2023/01/01 09:07:37;;;;;;;2.83;0.68;;;;;;;-145.06;100.00;60892.56;5870580;23;20011;-91
2023/01/01 09:10:16;;;;;;;1.83;0.73;;;;;;;-145.06;100.00;60892.56;5887312;23;20011;-91
2023/01/01 09:12:55;;;;;;;1.65;0.85;;;;;;;-145.06;100.00;60892.56;5887248;23;20015;-91
2023/01/01 09:15:34;;;;;;;0.93;0.60;;;;;;;-145.06;100.00;60892.56;5868678;23;20011;-91
2023/01/01 09:18:14;;;;;;;2.30;0.50;;;;;;;-145.06;100.00;60892.56;5889585;23;20010;-93
2023/01/01 09:20:55;;;;;;;1.63;0.97;;;;;;;-145.06;100.00;60892.56;5867267;23;20010;-93
2023/01/01 09:23:35;;;;;;;1.77;0.80;;;;;;;-145.06;100.00;60892.56;5870213;23;20062;-90
2023/01/01 09:26:14;;;;;;;1.50;0.80;;;;;;;-145.06;100.00;60892.56;5868467;23;20007;-91
2023/01/01 09:28:53;;;;;;;2.70;0.70;;;;;;;-145.06;100.00;60892.56;5866133;23;20010;-92
2023/01/01 09:31:32;;;;;;;1.07;0.50;;;;;;;-145.06;100.00;60892.56;5889787;23;20381;-91
2023/01/01 09:34:11;;;;;;;0.95;0.47;;;;;;;-145.06;100.00;60892.56;5869133;23;20077;-91
2023/01/01 09:36:51;;;;;;;1.40;0.50;;;;;;;-145.06;100.00;60892.56;5887418;23;20018;-91
2023/01/01 09:39:29;;;;;;;3.63;0.93;;;;;;;-145.06;100.00;60892.56;5866788;23;20006;-90
2023/01/01 09:42:24;;;;;;;0.90;0.50;;;;;;;-145.06;100.00;60892.56;5869511;23;20093;-91
2023/01/01 09:45:30;;;;;;;2.85;0.73;;;;;;;-145.06;100.00;60892.56;5867987;23;20037;-91
2023/01/01 09:48:14;;;;;;;1.27;0.57;;;;;;;-145.06;100.00;60892.56;5867441;23;20264;-91
2023/01/01 09:50:59;;;;;;;3.22;0.75;;;;;;;-145.06;100.00;60892.56;5869032;23;20010;-93
2023/01/01 09:53:51;;;;;;;3.40;0.45;;;;;;;-145.06;100.00;60892.56;5864250;23;20003;-90
2023/01/01 09:56:34;;;;;;;1.90;0.85;;;;;;;-145.06;100.00;60892.56;5864252;23;20014;-90
2023/01/01 09:59:13;;;;;;;0.88;0.50;;;;;;;-145.06;100.00;60892.56;5864380;23;20058;-90
2023/01/01 10:01:59;;;;;;;1.42;0.38;;;;;;;-145.06;100.00;60892.56;5865361;23;20014;-90
2023/01/01 10:05:10;;;;;;;1.50;0.63;;;;;;;-145.06;100.00;60892.56;5895845;23;20014;-89
2023/01/01 10:08:04;;;;;;;5.18;0.80;;;;;;;-145.06;100.00;60892.56;5855311;23;20029;-89
2023/01/01 10:10:55;;;;;;;2.00;0.80;;;;;;;-145.06;100.00;60892.56;5888579;23;20006;-90
2023/01/01 10:13:42;;;;;;;1.17;0.70;;;;;;;-145.06;100.00;60892.56;5867691;23;20007;-91
2023/01/01 10:16:32;;;;;;;2.03;0.80;;;;;;;-145.06;100.00;60892.56;5898260;23;20006;-89
2023/01/01 10:19:40;;;;;;;2.00;0.70;;;;;;;-145.06;100.00;60892.56;5867031;23;20007;-91
2023/01/01 10:22:26;;;;;;;1.35;0.60;;;;;;;-145.06;100.00;60892.56;5867341;23;20030;-91
2023/01/01 10:25:16;;;;;;;0.85;0.50;;;;;;;-145.06;100.00;60892.56;5865384;23;20326;-90
2023/01/01 10:28:03;;;;;;;1.67;0.63;;;;;;;-145.06;100.00;60892.56;5866857;23;20006;-92
2023/01/01 10:30:43;;;;;;;3.17;0.90;;;;;;;-145.06;100.00;60892.56;5866563;23;20006;-92
2023/01/01 10:33:22;;;;;;;1.00;0.57;;;;;;;-145.06;100.00;60892.56;5887614;23;20014;-90
2023/01/01 10:36:01;;;;;;;1.70;0.53;;;;;;;-145.06;100.00;60892.56;5866715;23;20314;-92
2023/01/01 10:38:42;;;;;;;1.15;0.60;;;;;;;-145.06;100.00;60892.56;5865542;23;20230;-91
2023/01/01 10:41:22;;;;;;;1.48;0.60;;;;;;;-145.06;100.00;60892.56;5866744;23;20010;-91
2023/01/01 10:44:01;;;;;;;0.57;0.40;;;;;;;-145.06;100.00;60892.56;5866109;23;20010;-91
2023/01/01 10:46:46;;;;;;;0.40;0.40;;;;;;;-145.06;100.00;60892.56;5886879;23;20033;-91
2023/01/01 10:49:25;;;;;;;1.15;0.52;;;;;;;-145.06;100.00;60892.56;5866767;23;20010;-91
2023/01/01 10:52:13;;;;;;;1.98;0.50;;;;;;;-145.06;100.00;60892.56;5865809;23;20006;-92
2023/01/01 10:54:53;;;;;;;0.70;0.40;;;;;;;-145.06;100.00;60892.56;5863782;23;20007;-91
2023/01/01 10:57:37;;;;;;;1.13;0.50;;;;;;;-145.06;100.00;60892.56;5866081;23;20010;-92
2023/01/01 11:00:26;;;;;;;1.23;0.50;;;;;;;-145.06;100.00;60892.56;5865898;23;20014;-91
2023/01/01 11:03:19;;;;;;;2.22;0.60;;;;;;;-145.06;100.00;60892.56;5867009;23;20002;-92
2023/01/01 11:06:02;;;;;;;0.88;0.40;;;;;;;-145.06;100.00;60892.56;5865742;23;20014;-91
2023/01/01 11:08:47;;;;;;;1.60;0.70;;;;;;;-145.06;100.00;60892.56;5866428;23;20069;-91
2023/01/01 11:11:30;;;;;;;2.30;0.60;;;;;;;-145.06;100.00;60892.56;5867369;23;20018;-92
2023/01/01 11:14:21;;;;;;;1.02;0.57;;;;;;;-145.06;100.00;60892.56;5866163;23;20492;-91
2023/01/01 11:17:00;;;;;;;2.03;0.68;;;;;;;-145.06;100.00;60892.56;5867738;23;20006;-91
2023/01/01 11:19:45;;;;;;;1.25;0.60;;;;;;;-145.06;100.00;60892.56;5870238;23;20442;-92
2023/01/01 11:23:16;;;;;;;1.25;0.68;;;;;;;-145.06;100.00;60892.56;5892381;23;20006;-92
2023/01/01 11:26:08;;;;;;;2.08;0.60;;;;;;;-145.06;100.00;60892.56;5760166;24;20064;-92
2023/01/01 11:29:23;;;;;;;0.98;0.55;;;;;;;-145.06;100.00;60892.56;5870457;23;20010;-92
2023/01/01 11:32:07;;;;;;;0.95;0.50;;;;;;;-145.06;100.00;60892.56;5865854;23;20228;-92
2023/01/01 11:34:57;;;;;;;0.80;0.60;;;;;;;-145.06;100.00;60892.56;5870405;23;20002;-92
2023/01/01 11:37:38;;;;;;;0.80;0.40;;;;;;;-145.06;100.00;60892.56;5891133;23;20014;-91
2023/01/01 11:40:26;;;;;;;1.92;0.60;;;;;;;-145.06;100.00;60892.56;5891093;23;20314;-93
2023/01/01 11:43:06;;;;;;;1.65;0.75;;;;;;;-145.06;100.00;60892.56;5870059;23;20034;-91
2023/01/01 11:45:46;;;;;;;2.05;0.85;;;;;;;-145.06;100.00;60892.56;5870212;23;20062;-93
2023/01/01 11:48:28;;;;;;;0.93;0.50;;;;;;;-145.06;100.00;60892.56;5870753;23;20002;-93
2023/01/01 11:51:26;;;;;;;2.00;0.70;;;;;;;-145.06;100.00;60892.56;5869951;23;20010;-92
2023/01/01 11:54:43;;;;;;;1.02;0.40;;;;;;;-145.06;100.00;60892.56;5870020;23;20029;-91
2023/01/01 11:57:25;;;;;;;0.57;0.40;;;;;;;-145.06;100.00;60892.56;5839858;23;20007;-90
2023/01/01 12:00:07;;;;;;;2.25;0.60;;;;;;;-145.06;100.00;60892.56;5870114;23;20010;-92
2023/01/01 12:03:31;;;;;;;0.68;0.40;;;;;;;-145.06;100.00;60892.56;5891306;23;20006;-91
2023/01/01 12:06:49;;;;;;;1.17;0.50;;;;;;;-145.06;100.00;60892.56;5831248;23;20014;-91
2023/01/01 12:09:56;;;;;;;0.93;0.40;;;;;;;-145.06;100.00;60892.56;5870264;23;20010;-91
2023/01/01 12:13:16;;;;;;;1.88;0.57;;;;;;;-145.06;100.00;60892.56;5870988;23;20058;-93
2023/01/01 12:16:00;;;;;;;0.82;0.55;;;;;;;-145.06;100.00;60892.56;5851413;23;20297;-91
2023/01/01 12:19:30;;;;;;;1.05;0.40;;;;;;;-145.06;100.00;60892.56;5868441;23;20006;-91
2023/01/01 12:22:16;;;;;;;1.50;0.50;;;;;;;-145.06;100.00;60892.56;5758553;24;20060;-92
2023/01/01 12:24:56;;;;;;;1.23;0.50;;;;;;;-145.06;100.00;60892.56;5868396;23;20544;-92
2023/01/01 12:28:08;;;;;;;1.35;0.57;;;;;;;-145.06;100.00;60892.56;5868595;23;20010;-92